Bar Harbor, Maine
Current Conditions -  °F | °C
As of 8:35 PM on Friday 24 Oct 2014 (Local Time) from KBHB Reporting Station
Overcast Overcast  
Wind Chill: 39°   Ceiling: 1000
Heat Index: 45°   Visibility: 10mi
Dew Point: 45°   Wind: 10mph
Humidity: 100%   Direction: 360°N
Pressure: 29.64"   Gusts: NA
Location:  44.39°N, 68.2°W
Report Text: KBHB 250035Z AUTO 36009KT 10SM OVC010 07/07 A2964 RMK AO1 P0001
Loading
Personal Weather Stations






























Interactive Weather Map New forecast layout! Learn more

10-Day Weather Forecast

Advertisements
Track Severe Weather on mobile